Decoded Metar for OIIE (ABYEK in IRAN) (IATA:N/A) | Meteo·Mobile Aviation Weather
aviador You're here:

OIIE Decoded Metar

ABYEK in IRAN
Report Time2019-01-17 23:00:00
UTC Time2019-01-17 23:24:52
Flight Rules vfr VFR
Wind310° at 10 kt
W.Decomp.*RWY 29: 9.6 kt HW 2.8 kt RCW
W.Rank310° ranks 3
Current wind is below 310° avg. (11.6)
Visibility9999 m
Phenomena:N/A
Clouds:Scattered 100 Hf
Expected CloudBase > 1,200 ft AGL from Temp-Dew spread
CeilingNone
Temp02°C (ISA -6)
Dew Point-1°C (81% RH)
AAT-3.7°C
QNH1011 hPa
Density Alt2,684 ft
Elevation3,304 ft
Report Wrong Elevation
Raw Report
OIIE 172300Z 31010KT 9999 SCT100 02/M01 Q1011 NOSIG=

Extra information for OIIE:More info

Metar Taf Metar & Taf Last 4 Metars F.Rules Stats Wind Profile Meteogram Temp Stats Airport Information Weather charts Add Link Nearby VenuesMetar ALERT Operation Metar Decoded Social comments